Portada
METAR-TAF:

METAR-TAF

Aeroports :

Ocala International Airport (Jim Taylor Field)

Ocala, Florida, Estats Units d'Amèrica

latitud: 29-10N, longitud: 082-13W, altitud: 27 m

Observació

L'informe es va fer fa 17 minuts, a les 05:51 UTC
Vent 3 kt del Nord/Nord-Oest
Temperatura 24°C
Humitat 94%
Pressió 1015 hPa
Visibilitat: 16.1 km
Escasses núvols a una alçada de 1500 ft

METAR: KOCF 160551Z AUTO 34003KT 10SM FEW015 24/23 A2997 RMK AO2 SLP149 T02390233 10267 20239 58003 $

Hora: 02:08 (06:08 UTC)


TAF: manca

Observacions i pronòstics meteorològics de més de 4000 aeroports (METAR i TAF).

Les estacions disponibles són els punts grocs i vermells al mapa.

Posi el ratolí al punt desitjat per veure el nom de l'estació.

Feu clic per veure les observacions i els pronòstics meteorològics.

Per canviar el mapa: feu clic els botons verds amb una creu de color negre per apropar; al botó verd amb un guió per allunyar la imatge; o en les fletxes verdes per a mapes adjacents.


METAR-TAF: